createdAt,value
2022-07-31T00:00:15.327Z,43.24
2022-07-31T00:02:41.995Z,43.22
2022-07-31T00:05:09.026Z,43.70
2022-07-31T00:07:35.750Z,43.53
2022-07-31T00:10:02.864Z,43.70
2022-07-31T00:12:29.530Z,43.41
2022-07-31T00:14:56.339Z,43.97
2022-07-31T00:17:23.017Z,43.73
2022-07-31T00:19:49.744Z,43.93
2022-07-31T00:22:16.393Z,44.21
2022-07-31T00:24:43.103Z,43.86
2022-07-31T00:27:10.834Z,43.88
2022-07-31T00:29:38.750Z,44.17
2022-07-31T00:32:06.000Z,44.22
2022-07-31T00:34:32.773Z,44.33
2022-07-31T00:37:02.416Z,44.34
2022-07-31T00:39:30.988Z,44.59
2022-07-31T00:41:57.767Z,44.31
2022-07-31T00:44:24.663Z,44.27
2022-07-31T00:46:53.040Z,44.40
2022-07-31T00:49:20.090Z,44.70
2022-07-31T00:51:48.105Z,44.54
2022-07-31T00:54:22.377Z,44.77
2022-07-31T00:56:49.859Z,44.40
2022-07-31T00:59:16.899Z,44.95
2022-07-31T01:01:51.646Z,44.97
2022-07-31T01:04:19.658Z,44.86
2022-07-31T01:06:47.476Z,44.66
2022-07-31T01:09:14.947Z,45.01
2022-07-31T01:11:51.041Z,45.04
2022-07-31T01:14:20.188Z,44.95
2022-07-31T01:16:48.925Z,44.99
2022-07-31T01:19:18.650Z,45.00
2022-07-31T01:22:34.743Z,44.83
2022-07-31T01:25:24.506Z,45.13
2022-07-31T01:28:07.557Z,45.29
2022-07-31T01:30:44.332Z,45.08
2022-07-31T01:33:15.047Z,45.07
2022-07-31T01:36:09.310Z,45.45
2022-07-31T01:38:42.487Z,45.33
2022-07-31T01:41:13.730Z,45.63
2022-07-31T01:43:42.146Z,45.39
2022-07-31T01:46:13.210Z,45.37
2022-07-31T01:48:40.938Z,45.53
2022-07-31T01:51:09.457Z,45.88
2022-07-31T01:53:38.998Z,45.69
2022-07-31T01:56:07.333Z,45.64
2022-07-31T01:58:39.233Z,45.64
2022-07-31T02:01:26.942Z,45.81
2022-07-31T02:03:56.518Z,45.79
2022-07-31T02:06:23.532Z,45.92
2022-07-31T02:08:52.833Z,45.79
2022-07-31T02:11:21.824Z,45.69
2022-07-31T02:13:49.234Z,45.88
2022-07-31T02:16:17.994Z,46.13
2022-07-31T02:18:48.297Z,46.39
2022-07-31T02:21:21.663Z,46.18
2022-07-31T02:23:48.498Z,46.40
2022-07-31T02:26:16.133Z,46.10
2022-07-31T02:28:44.945Z,46.13
2022-07-31T02:31:13.311Z,46.06
2022-07-31T02:33:45.242Z,46.46
2022-07-31T02:36:13.509Z,46.25
2022-07-31T02:38:40.913Z,46.42
2022-07-31T02:41:08.422Z,46.55
2022-07-31T02:43:35.478Z,46.55
2022-07-31T02:46:12.577Z,46.69
2022-07-31T02:48:40.199Z,46.77
2022-07-31T02:51:09.858Z,46.44
2022-07-31T02:53:37.915Z,46.55
2022-07-31T02:56:09.949Z,46.88
2022-07-31T02:58:42.012Z,46.81
2022-07-31T03:01:14.534Z,46.71
2022-07-31T03:03:44.521Z,46.64
2022-07-31T03:06:11.602Z,46.65
2022-07-31T03:08:38.631Z,46.81
2022-07-31T03:11:06.275Z,46.98
2022-07-31T03:13:35.451Z,47.12
2022-07-31T03:16:04.187Z,47.07
2022-07-31T03:18:32.188Z,46.76
2022-07-31T03:20:58.913Z,46.86
2022-07-31T03:23:27.843Z,47.04
2022-07-31T03:26:05.820Z,47.23
2022-07-31T03:28:34.480Z,47.19
2022-07-31T03:31:01.603Z,46.95
2022-07-31T03:33:30.776Z,47.17
2022-07-31T03:35:58.061Z,46.83
2022-07-31T03:38:34.911Z,47.22
2022-07-31T03:41:14.469Z,47.23
2022-07-31T03:43:47.651Z,47.22
2022-07-31T03:46:19.235Z,47.40
2022-07-31T03:48:47.567Z,47.21
2022-07-31T03:51:14.499Z,47.54
2022-07-31T03:53:41.792Z,47.52
2022-07-31T03:56:13.394Z,47.35
2022-07-31T03:58:40.270Z,47.48
2022-07-31T04:01:08.319Z,47.69
2022-07-31T04:03:38.156Z,47.21
2022-07-31T04:06:34.431Z,47.26
2022-07-31T04:09:01.599Z,47.35
2022-07-31T04:11:42.627Z,47.62
2022-07-31T04:14:10.022Z,47.55
2022-07-31T04:16:36.953Z,47.72
2022-07-31T04:19:03.733Z,47.45
2022-07-31T04:21:30.486Z,47.66
2022-07-31T04:23:57.190Z,47.95
2022-07-31T04:26:48.757Z,48.07
2022-07-31T04:29:16.273Z,47.79
2022-07-31T04:31:43.023Z,47.70
2022-07-31T04:34:14.057Z,48.08
2022-07-31T04:36:41.145Z,47.56
2022-07-31T04:39:07.999Z,47.80
2022-07-31T04:41:34.843Z,48.12
2022-07-31T04:44:01.603Z,47.77
2022-07-31T04:46:40.714Z,48.01
2022-07-31T04:49:07.557Z,48.22
2022-07-31T04:51:34.358Z,48.19
2022-07-31T04:54:01.134Z,48.21
2022-07-31T04:56:44.697Z,47.89
2022-07-31T04:59:14.155Z,47.87
2022-07-31T05:01:44.725Z,47.93
2022-07-31T05:04:13.760Z,48.00
2022-07-31T05:06:44.534Z,47.99
2022-07-31T05:09:18.496Z,48.22
2022-07-31T05:11:47.401Z,48.03
2022-07-31T05:14:16.706Z,48.14
2022-07-31T05:16:43.998Z,48.04
2022-07-31T05:19:13.813Z,48.08
2022-07-31T05:22:02.314Z,48.33
2022-07-31T05:24:49.721Z,48.12
2022-07-31T05:27:17.074Z,48.08
2022-07-31T05:29:43.773Z,48.15
2022-07-31T05:32:11.440Z,48.07
2022-07-31T05:34:38.378Z,48.07
2022-07-31T05:37:05.411Z,48.41
2022-07-31T05:39:35.455Z,48.37
2022-07-31T05:42:20.776Z,48.52
2022-07-31T05:44:59.500Z,48.32
2022-07-31T05:47:26.545Z,48.24
2022-07-31T05:50:09.343Z,48.66
2022-07-31T05:52:36.794Z,48.15
2022-07-31T05:55:21.692Z,48.61
2022-07-31T05:58:16.920Z,48.37
2022-07-31T06:00:47.652Z,48.22
2022-07-31T06:03:14.676Z,48.35
2022-07-31T06:05:57.934Z,48.17
2022-07-31T06:08:26.349Z,48.34
2022-07-31T06:10:53.446Z,47.92
2022-07-31T06:13:24.429Z,47.96
2022-07-31T06:15:53.602Z,47.92
2022-07-31T06:18:20.944Z,48.20
2022-07-31T06:20:47.873Z,48.01
2022-07-31T06:23:22.798Z,47.79
2022-07-31T06:26:04.851Z,47.71
2022-07-31T06:28:47.954Z,47.83
2022-07-31T06:31:21.738Z,48.16
2022-07-31T06:33:51.056Z,47.54
2022-07-31T06:36:21.312Z,47.77
2022-07-31T06:38:57.885Z,47.46
2022-07-31T06:41:46.380Z,47.81
2022-07-31T06:44:28.961Z,47.51
2022-07-31T06:47:17.194Z,47.50
2022-07-31T06:50:05.771Z,47.86
2022-07-31T06:52:50.926Z,47.90
2022-07-31T06:55:18.157Z,47.78
2022-07-31T06:57:44.856Z,47.91
2022-07-31T07:00:19.783Z,47.55
2022-07-31T07:02:48.830Z,47.70
2022-07-31T07:05:15.942Z,47.70
2022-07-31T07:07:42.998Z,47.74
2022-07-31T07:10:09.769Z,47.72
2022-07-31T07:13:05.616Z,48.12
2022-07-31T07:15:36.017Z,47.99
2022-07-31T07:18:03.068Z,48.15
2022-07-31T07:20:41.087Z,48.19
2022-07-31T07:23:07.958Z,48.12
2022-07-31T07:26:07.446Z,48.20
2022-07-31T07:28:35.694Z,48.31
2022-07-31T07:31:03.778Z,48.16
2022-07-31T07:33:41.533Z,48.14
2022-07-31T07:36:23.951Z,47.94
2022-07-31T07:39:14.107Z,47.84
2022-07-31T07:41:43.219Z,48.30
2022-07-31T07:44:09.979Z,48.26
2022-07-31T07:46:37.569Z,48.28
2022-07-31T07:49:06.757Z,47.92
2022-07-31T07:51:33.623Z,47.92
2022-07-31T07:54:12.014Z,48.06
2022-07-31T07:57:17.731Z,47.89
2022-07-31T08:00:05.617Z,48.31
2022-07-31T08:03:47.020Z,48.17
2022-07-31T08:05:39.464Z,48.17
2022-07-31T08:08:06.287Z,48.45
2022-07-31T08:10:48.227Z,48.26
2022-07-31T08:13:19.894Z,48.30
2022-07-31T08:16:12.561Z,48.06
2022-07-31T08:18:44.740Z,47.76
2022-07-31T08:21:11.838Z,47.61
2022-07-31T08:23:38.565Z,47.45
2022-07-31T08:26:08.376Z,46.99
2022-07-31T08:28:36.101Z,46.85
2022-07-31T08:31:03.290Z,46.50
2022-07-31T08:33:33.146Z,46.88
2022-07-31T08:36:00.842Z,46.07
2022-07-31T08:38:28.710Z,46.20
2022-07-31T08:41:34.670Z,45.79
2022-07-31T08:44:04.334Z,45.93
2022-07-31T08:46:37.658Z,45.33
2022-07-31T08:49:05.320Z,45.09
2022-07-31T08:51:51.153Z,44.92
2022-07-31T08:54:54.714Z,45.17
2022-07-31T08:57:23.555Z,44.96
2022-07-31T08:59:52.464Z,44.88
2022-07-31T09:02:19.580Z,44.88
2022-07-31T09:05:13.207Z,44.73
2022-07-31T09:07:40.926Z,44.46
2022-07-31T09:10:27.792Z,44.41
2022-07-31T09:12:56.135Z,44.65
2022-07-31T09:15:29.966Z,44.59
2022-07-31T09:18:00.102Z,44.16
2022-07-31T09:20:29.338Z,44.23
2022-07-31T09:23:07.719Z,44.18
2022-07-31T09:25:37.981Z,43.94
2022-07-31T09:28:06.506Z,43.37
2022-07-31T09:30:34.733Z,43.57
2022-07-31T09:33:20.227Z,43.62
2022-07-31T09:36:14.829Z,43.22
2022-07-31T09:38:45.981Z,42.89
2022-07-31T09:41:57.973Z,42.82
2022-07-31T09:45:04.395Z,42.73
2022-07-31T09:47:33.426Z,42.65
2022-07-31T09:50:05.570Z,42.63
2022-07-31T09:52:33.429Z,42.19
2022-07-31T09:55:14.279Z,42.25
2022-07-31T09:57:56.110Z,42.28
2022-07-31T10:00:25.019Z,41.85
2022-07-31T10:02:57.357Z,41.75
2022-07-31T10:05:27.627Z,41.34
2022-07-31T10:08:00.171Z,41.71
2022-07-31T10:10:44.124Z,41.42
2022-07-31T10:13:31.211Z,41.49
2022-07-31T10:16:00.056Z,40.95
2022-07-31T10:19:03.624Z,41.30
2022-07-31T10:21:36.311Z,41.43
2022-07-31T10:24:10.506Z,41.16
2022-07-31T10:26:59.660Z,40.72
2022-07-31T10:29:25.595Z,40.70
2022-07-31T10:31:52.377Z,40.43
2022-07-31T10:34:21.676Z,40.70
2022-07-31T10:37:23.003Z,40.74
2022-07-31T10:40:40.568Z,40.43
2022-07-31T10:43:10.213Z,40.35
2022-07-31T10:45:53.995Z,40.19
2022-07-31T10:48:52.775Z,40.44
2022-07-31T10:51:50.898Z,40.21
2022-07-31T10:54:40.606Z,39.74
2022-07-31T10:57:34.662Z,39.46
2022-07-31T11:00:38.101Z,39.61
2022-07-31T11:03:14.688Z,39.72
2022-07-31T11:06:03.287Z,39.33
2022-07-31T11:08:57.411Z,39.22
2022-07-31T11:11:47.370Z,38.96
2022-07-31T11:14:43.235Z,38.91
2022-07-31T11:18:23.841Z,39.43
2022-07-31T11:20:32.151Z,38.92
2022-07-31T11:23:06.687Z,38.66
2022-07-31T11:25:35.970Z,39.12
2022-07-31T11:28:24.855Z,39.12
2022-07-31T11:30:53.871Z,38.66
2022-07-31T11:33:42.198Z,39.09
2022-07-31T11:36:11.117Z,38.55
2022-07-31T11:38:39.224Z,38.77
2022-07-31T11:41:07.849Z,38.45
2022-07-31T11:43:37.710Z,38.34
2022-07-31T11:46:06.102Z,38.12
2022-07-31T11:48:43.530Z,38.03
2022-07-31T11:51:18.524Z,37.96
2022-07-31T11:53:45.839Z,38.29
2022-07-31T11:56:18.878Z,37.81
2022-07-31T11:58:53.039Z,38.27
2022-07-31T12:01:20.089Z,38.00
2022-07-31T12:03:46.906Z,37.63
2022-07-31T12:06:18.600Z,37.92
2022-07-31T12:08:47.038Z,37.67
2022-07-31T12:11:14.548Z,37.68
2022-07-31T12:13:45.641Z,37.88
2022-07-31T12:16:12.363Z,37.76
2022-07-31T12:18:59.402Z,37.67
2022-07-31T12:21:34.566Z,37.78
2022-07-31T12:24:01.862Z,37.68
2022-07-31T12:26:33.283Z,37.59
2022-07-31T12:29:05.625Z,37.05
2022-07-31T12:31:44.814Z,37.53
2022-07-31T12:34:11.657Z,36.88
2022-07-31T12:36:38.281Z,36.84
2022-07-31T12:39:05.462Z,36.74
2022-07-31T12:41:42.203Z,36.84
2022-07-31T12:44:14.434Z,36.82
2022-07-31T12:46:41.534Z,36.68
2022-07-31T12:49:08.586Z,36.74
2022-07-31T12:51:46.659Z,36.69
2022-07-31T12:54:17.903Z,36.09
2022-07-31T12:56:45.451Z,36.16
2022-07-31T12:59:12.330Z,36.53
2022-07-31T13:01:39.841Z,36.14
2022-07-31T13:04:07.999Z,35.81
2022-07-31T13:06:44.821Z,35.75
2022-07-31T13:09:11.470Z,35.81
2022-07-31T13:11:46.388Z,35.75
2022-07-31T13:14:18.900Z,35.57
2022-07-31T13:16:46.837Z,35.35
2022-07-31T13:19:14.123Z,35.63
2022-07-31T13:21:48.288Z,35.11
2022-07-31T13:24:16.845Z,34.82
2022-07-31T13:26:45.315Z,34.87
2022-07-31T13:29:12.474Z,35.17
2022-07-31T13:31:39.426Z,35.24
2022-07-31T13:34:06.700Z,35.25
2022-07-31T13:36:38.895Z,35.04
2022-07-31T13:39:07.526Z,35.21
2022-07-31T13:41:35.540Z,34.72
2022-07-31T13:44:03.144Z,34.42
2022-07-31T13:46:30.258Z,34.67
2022-07-31T13:48:59.530Z,34.48
2022-07-31T13:51:29.125Z,34.21
2022-07-31T13:53:56.034Z,34.50
2022-07-31T13:56:39.673Z,34.60
2022-07-31T13:59:11.515Z,34.43
2022-07-31T14:02:02.847Z,34.13
2022-07-31T14:04:30.884Z,34.08
2022-07-31T14:07:00.709Z,34.03
2022-07-31T14:09:27.991Z,34.26
2022-07-31T14:11:54.658Z,34.03
2022-07-31T14:14:23.843Z,34.00
2022-07-31T14:16:50.862Z,34.12
2022-07-31T14:19:17.533Z,34.01
2022-07-31T14:21:56.423Z,33.64
2022-07-31T14:24:25.643Z,33.77
2022-07-31T14:26:52.410Z,33.30
2022-07-31T14:29:19.136Z,33.37
2022-07-31T14:31:45.781Z,33.32
2022-07-31T14:34:12.485Z,33.77
2022-07-31T14:36:39.174Z,33.57
2022-07-31T14:39:05.926Z,33.69
2022-07-31T14:41:32.578Z,33.30
2022-07-31T14:43:59.309Z,33.23
2022-07-31T14:46:26.757Z,33.14
2022-07-31T14:48:53.740Z,32.83
2022-07-31T14:51:20.705Z,33.42
2022-07-31T14:53:47.746Z,33.03
2022-07-31T14:56:17.288Z,32.98
2022-07-31T14:58:58.200Z,32.84
2022-07-31T15:01:26.819Z,32.82
2022-07-31T15:03:58.794Z,32.97
2022-07-31T15:06:50.773Z,33.09
2022-07-31T15:09:16.204Z,32.93
2022-07-31T15:11:58.290Z,32.70
2022-07-31T15:14:30.275Z,32.67
2022-07-31T15:16:57.331Z,32.40
2022-07-31T15:19:24.345Z,32.77
2022-07-31T15:22:16.251Z,32.44
2022-07-31T15:24:42.364Z,32.44
2022-07-31T15:27:13.172Z,32.21
2022-07-31T15:30:04.048Z,31.92
2022-07-31T15:32:27.072Z,31.82
2022-07-31T15:34:54.147Z,31.87
2022-07-31T15:37:20.815Z,32.01
2022-07-31T15:40:01.357Z,32.10
2022-07-31T15:42:34.186Z,31.69
2022-07-31T15:45:01.030Z,31.35
2022-07-31T15:47:27.855Z,31.53
2022-07-31T15:49:54.611Z,31.28
2022-07-31T15:52:21.284Z,31.35
2022-07-31T15:54:51.872Z,31.35
2022-07-31T15:57:21.508Z,31.43
2022-07-31T15:59:49.475Z,31.38
2022-07-31T16:02:16.926Z,31.14
2022-07-31T16:04:51.841Z,31.07
2022-07-31T16:08:30.114Z,31.29
2022-07-31T16:10:15.489Z,31.23
2022-07-31T16:12:43.100Z,30.73
2022-07-31T16:15:12.132Z,31.07
2022-07-31T16:17:38.960Z,30.63
2022-07-31T16:20:11.848Z,30.99
2022-07-31T16:22:40.180Z,30.70
2022-07-31T16:25:08.031Z,30.56
2022-07-31T16:27:34.778Z,30.50
2022-07-31T16:30:02.868Z,30.69
2022-07-31T16:32:30.536Z,30.41
2022-07-31T16:35:00.955Z,30.15
2022-07-31T16:37:50.315Z,30.05
2022-07-31T16:40:30.839Z,30.04
2022-07-31T16:43:48.026Z,29.63
2022-07-31T16:45:50.538Z,29.50
2022-07-31T16:48:17.684Z,29.87
2022-07-31T16:50:44.512Z,29.51
2022-07-31T16:54:10.754Z,29.27
2022-07-31T16:56:00.826Z,29.20
2022-07-31T16:58:28.548Z,29.29
2022-07-31T17:00:55.400Z,29.26
2022-07-31T17:04:00.071Z,29.08
2022-07-31T17:06:10.397Z,29.03
2022-07-31T17:08:38.302Z,29.00
2022-07-31T17:11:05.601Z,29.01
2022-07-31T17:13:32.536Z,29.25
2022-07-31T17:15:59.279Z,28.86
2022-07-31T17:18:26.270Z,29.11
2022-07-31T17:20:56.900Z,29.24
2022-07-31T17:23:42.751Z,29.10
2022-07-31T17:26:21.602Z,29.30
2022-07-31T17:28:50.671Z,28.94
2022-07-31T17:31:18.719Z,29.38
2022-07-31T17:33:54.512Z,28.94
2022-07-31T17:36:28.644Z,29.13
2022-07-31T17:38:56.077Z,29.28
2022-07-31T17:41:24.738Z,29.20
2022-07-31T17:43:53.604Z,29.67
2022-07-31T17:46:34.458Z,29.55
2022-07-31T17:49:04.507Z,29.39
2022-07-31T17:51:31.313Z,30.08
2022-07-31T17:53:59.585Z,29.61
2022-07-31T17:56:27.146Z,29.75
2022-07-31T17:58:55.579Z,29.92
2022-07-31T18:01:25.794Z,30.16
2022-07-31T18:03:55.971Z,30.05
2022-07-31T18:06:22.646Z,30.28
2022-07-31T18:08:49.543Z,30.53
2022-07-31T18:11:16.586Z,30.38
2022-07-31T18:13:47.998Z,30.76
2022-07-31T18:16:17.590Z,30.61
2022-07-31T18:18:44.890Z,30.85
2022-07-31T18:21:12.065Z,30.74
2022-07-31T18:23:41.572Z,30.58
2022-07-31T18:26:14.589Z,31.10
2022-07-31T18:28:41.676Z,30.97
2022-07-31T18:31:25.455Z,30.87
2022-07-31T18:33:55.179Z,31.30
2022-07-31T18:36:21.871Z,31.34
2022-07-31T18:38:48.718Z,31.20
2022-07-31T18:41:16.032Z,31.12
2022-07-31T18:43:42.717Z,31.51
2022-07-31T18:46:09.390Z,31.42
2022-07-31T18:48:36.119Z,31.06
2022-07-31T18:51:05.175Z,31.64
2022-07-31T18:53:33.312Z,31.51
2022-07-31T18:56:00.035Z,31.61
2022-07-31T18:58:26.742Z,31.25
2022-07-31T19:00:55.297Z,31.54
2022-07-31T19:03:23.609Z,31.83
2022-07-31T19:05:52.823Z,32.03
2022-07-31T19:08:20.409Z,31.98
2022-07-31T19:10:49.495Z,32.60
2022-07-31T19:13:18.778Z,32.46
2022-07-31T19:15:51.539Z,32.41
2022-07-31T19:18:24.490Z,33.17
2022-07-31T19:21:23.046Z,32.86
2022-07-31T19:23:44.981Z,33.03
2022-07-31T19:26:11.869Z,33.37
2022-07-31T19:28:39.783Z,33.96
2022-07-31T19:31:07.211Z,34.26
2022-07-31T19:33:34.121Z,33.91
2022-07-31T19:36:02.621Z,34.38
2022-07-31T19:38:31.633Z,34.37
2022-07-31T19:40:58.758Z,34.02
2022-07-31T19:43:25.533Z,34.19
2022-07-31T19:46:00.534Z,34.37
2022-07-31T19:48:43.326Z,34.50
2022-07-31T19:51:11.429Z,34.71
2022-07-31T19:53:38.506Z,34.71
2022-07-31T19:56:06.178Z,34.97
2022-07-31T19:58:34.688Z,35.06
2022-07-31T20:01:02.585Z,35.27
2022-07-31T20:03:29.617Z,35.19
2022-07-31T20:05:57.162Z,35.17
2022-07-31T20:08:23.981Z,35.66
2022-07-31T20:10:51.494Z,35.63
2022-07-31T20:13:18.642Z,35.69
2022-07-31T20:15:51.029Z,35.57
2022-07-31T20:18:27.194Z,36.04
2022-07-31T20:21:15.353Z,36.05
2022-07-31T20:23:42.631Z,36.13
2022-07-31T20:26:11.242Z,36.29
2022-07-31T20:28:40.533Z,36.29
2022-07-31T20:31:08.467Z,36.47
2022-07-31T20:33:56.538Z,36.63
2022-07-31T20:36:28.306Z,36.48
2022-07-31T20:38:55.426Z,36.57
2022-07-31T20:41:22.101Z,37.06
2022-07-31T20:43:48.814Z,37.00
2022-07-31T20:46:16.765Z,36.88
2022-07-31T20:48:45.181Z,37.28
2022-07-31T20:51:19.251Z,37.15
2022-07-31T20:53:50.512Z,37.69
2022-07-31T20:56:17.470Z,37.26
2022-07-31T20:58:49.466Z,37.81
2022-07-31T21:01:20.083Z,37.85
2022-07-31T21:03:47.315Z,38.04
2022-07-31T21:06:14.043Z,37.72
2022-07-31T21:08:41.593Z,37.96
2022-07-31T21:11:08.464Z,38.29
2022-07-31T21:13:36.302Z,38.13
2022-07-31T21:16:03.770Z,38.24
2022-07-31T21:18:34.612Z,38.19
2022-07-31T21:21:02.080Z,38.19
2022-07-31T21:23:28.965Z,38.33
2022-07-31T21:25:58.236Z,38.43
2022-07-31T21:28:27.230Z,38.58
2022-07-31T21:30:56.411Z,38.76
2022-07-31T21:33:27.313Z,38.54
2022-07-31T21:35:57.254Z,38.77
2022-07-31T21:38:24.117Z,38.77
2022-07-31T21:40:51.900Z,39.03
2022-07-31T21:43:22.796Z,39.05
2022-07-31T21:45:57.433Z,39.05
2022-07-31T21:48:28.965Z,38.91
2022-07-31T21:50:55.998Z,39.02
2022-07-31T21:53:23.717Z,39.23
2022-07-31T21:55:50.726Z,39.10
2022-07-31T21:58:17.576Z,39.13
2022-07-31T22:00:44.506Z,39.48
2022-07-31T22:03:11.618Z,39.06
2022-07-31T22:05:57.189Z,39.40
2022-07-31T22:08:24.038Z,39.48
2022-07-31T22:10:51.480Z,39.38
2022-07-31T22:13:19.536Z,39.52
2022-07-31T22:15:51.509Z,39.85
2022-07-31T22:18:34.244Z,39.44
2022-07-31T22:21:03.583Z,39.93
2022-07-31T22:23:30.617Z,40.01
2022-07-31T22:25:57.870Z,40.14
2022-07-31T22:28:25.805Z,40.10
2022-07-31T22:30:53.496Z,40.03
2022-07-31T22:33:20.805Z,40.06
2022-07-31T22:35:58.865Z,39.72
2022-07-31T22:38:28.544Z,40.20
2022-07-31T22:40:55.350Z,40.20
2022-07-31T22:44:10.073Z,39.91
2022-07-31T22:46:11.774Z,40.49
2022-07-31T22:48:41.739Z,40.60
2022-07-31T22:51:09.036Z,40.70
2022-07-31T22:53:37.566Z,40.44
2022-07-31T22:56:04.620Z,40.50
2022-07-31T22:58:31.282Z,40.92
2022-07-31T23:00:58.011Z,40.66
2022-07-31T23:03:24.735Z,41.00
2022-07-31T23:06:02.814Z,41.07
2022-07-31T23:08:38.275Z,40.70
2022-07-31T23:11:04.921Z,41.23
2022-07-31T23:13:31.650Z,41.32
2022-07-31T23:15:58.363Z,41.16
2022-07-31T23:18:26.525Z,41.41
2022-07-31T23:20:53.267Z,41.21
2022-07-31T23:23:19.996Z,41.72
2022-07-31T23:25:46.798Z,41.16
2022-07-31T23:28:13.476Z,41.38
2022-07-31T23:30:40.244Z,41.31
2022-07-31T23:33:06.939Z,41.47
2022-07-31T23:35:33.665Z,41.67
2022-07-31T23:38:00.407Z,41.73
2022-07-31T23:40:27.017Z,41.85
2022-07-31T23:42:53.773Z,41.72
2022-07-31T23:45:20.437Z,41.70
2022-07-31T23:47:48.283Z,41.75
2022-07-31T23:50:16.237Z,42.41
2022-07-31T23:52:43.361Z,42.16
2022-07-31T23:55:10.170Z,42.29
2022-07-31T23:57:37.016Z,42.13
